Terminal Aerodrome Forecast
Issued by NWS

Home | Current Version | Previous Version | Text Only | Print | Product List | Glossary On
Versions: 1 2 3 4 5 6 7 8 9 10 11 12 13 14 15 16 17
000
FTUS43 KGRB 252300
TAFMTW
TAF
KMTW 252335Z 2600/2624 16009KT P6SM SCT025 BKN050
     FM260200 19006KT P6SM BKN025 BKN040
     FM260800 23004KT 5SM BR SCT018 BKN025
     FM261400 28008KT P6SM BKN035=

USA.gov is the U.S. government's official web portal to all federal, state and local government web resources and services.